sensor_id;sensor_type;location;lat;lon;timestamp;pressure;altitude;pressure_sealevel;temperature;humidity
43707;BME280;61348;53.392;-6.248;2023-02-19T00:01:34;101785.63;;;8.85;81.06
43707;BME280;61348;53.392;-6.248;2023-02-19T00:04:20;101790.03;;;8.86;81.18
43707;BME280;61348;53.392;-6.248;2023-02-19T00:06:48;101788.09;;;8.86;81.16
43707;BME280;61348;53.392;-6.248;2023-02-19T00:09:16;101793.63;;;8.86;81.37
43707;BME280;61348;53.392;-6.248;2023-02-19T00:11:44;101791.97;;;8.85;81.41
43707;BME280;61348;53.392;-6.248;2023-02-19T00:14:19;101807.44;;;8.86;81.58
43707;BME280;61348;53.392;-6.248;2023-02-19T00:16:46;101803.03;;;8.85;81.62
43707;BME280;61348;53.392;-6.248;2023-02-19T00:19:16;101792.31;;;8.84;81.70
43707;BME280;61348;53.392;-6.248;2023-02-19T00:21:44;101802.81;;;8.82;81.81
43707;BME280;61348;53.392;-6.248;2023-02-19T00:24:12;101800.97;;;8.77;81.90
43707;BME280;61348;53.392;-6.248;2023-02-19T00:26:40;101786.19;;;8.73;81.99
43707;BME280;61348;53.392;-6.248;2023-02-19T00:29:10;101802.84;;;8.68;81.98
43707;BME280;61348;53.392;-6.248;2023-02-19T00:31:38;101804.06;;;8.62;82.23
43707;BME280;61348;53.392;-6.248;2023-02-19T00:34:06;101805.78;;;8.58;82.36
43707;BME280;61348;53.392;-6.248;2023-02-19T00:36:36;101803.66;;;8.55;82.42
43707;BME280;61348;53.392;-6.248;2023-02-19T00:39:04;101798.75;;;8.52;82.56
43707;BME280;61348;53.392;-6.248;2023-02-19T00:41:34;101798.75;;;8.52;82.73
43707;BME280;61348;53.392;-6.248;2023-02-19T00:44:04;101804.28;;;8.52;82.92
43707;BME280;61348;53.392;-6.248;2023-02-19T00:46:36;101805.59;;;8.54;82.97
43707;BME280;61348;53.392;-6.248;2023-02-19T00:49:05;101813.56;;;8.56;83.11
43707;BME280;61348;53.392;-6.248;2023-02-19T00:51:35;101819.91;;;8.56;83.04
43707;BME280;61348;53.392;-6.248;2023-02-19T00:54:02;101827.88;;;8.58;82.98
43707;BME280;61348;53.392;-6.248;2023-02-19T00:56:29;101840.06;;;8.57;83.22
43707;BME280;61348;53.392;-6.248;2023-02-19T00:58:56;101836.69;;;8.60;83.18
43707;BME280;61348;53.392;-6.248;2023-02-19T01:01:23;101837.78;;;8.59;83.23
43707;BME280;61348;53.392;-6.248;2023-02-19T01:03:50;101843.31;;;8.59;83.32
43707;BME280;61348;53.392;-6.248;2023-02-19T01:06:18;101851.28;;;8.61;83.46
43707;BME280;61348;53.392;-6.248;2023-02-19T01:08:46;101850.47;;;8.60;83.50
43707;BME280;61348;53.392;-6.248;2023-02-19T01:11:13;101844.13;;;8.60;83.51
43707;BME280;61348;53.392;-6.248;2023-02-19T01:13:40;101841.66;;;8.58;83.51
43707;BME280;61348;53.392;-6.248;2023-02-19T01:16:19;101831.78;;;8.57;83.64
43707;BME280;61348;53.392;-6.248;2023-02-19T01:18:47;101830.94;;;8.56;83.64
43707;BME280;61348;53.392;-6.248;2023-02-19T01:21:17;101827.34;;;8.56;83.70
43707;BME280;61348;53.392;-6.248;2023-02-19T01:23:45;101831.88;;;8.52;83.68
43707;BME280;61348;53.392;-6.248;2023-02-19T01:26:21;101841.56;;;8.49;83.56
43707;BME280;61348;53.392;-6.248;2023-02-19T01:28:48;101834.72;;;8.47;83.81
43707;BME280;61348;53.392;-6.248;2023-02-19T01:31:21;101828.38;;;8.46;83.77
43707;BME280;61348;53.392;-6.248;2023-02-19T01:33:50;101843.81;;;8.47;83.88
43707;BME280;61348;53.392;-6.248;2023-02-19T01:36:19;101841.03;;;8.47;83.79
43707;BME280;61348;53.392;-6.248;2023-02-19T01:38:46;101845.78;;;8.47;83.78
43707;BME280;61348;53.392;-6.248;2023-02-19T01:41:16;101848.00;;;8.45;83.91
43707;BME280;61348;53.392;-6.248;2023-02-19T01:46:41;101842.44;;;8.31;83.97
43707;BME280;61348;53.392;-6.248;2023-02-19T01:51:38;101849.53;;;8.19;84.29
43707;BME280;61348;53.392;-6.248;2023-02-19T01:54:07;101842.19;;;8.14;84.31
43707;BME280;61348;53.392;-6.248;2023-02-19T01:56:37;101846.66;;;8.10;84.49
43707;BME280;61348;53.392;-6.248;2023-02-19T01:59:06;101844.19;;;8.09;84.84
43707;BME280;61348;53.392;-6.248;2023-02-19T02:01:36;101844.19;;;8.09;84.80
43707;BME280;61348;53.392;-6.248;2023-02-19T02:04:05;101837.84;;;8.08;84.96
43707;BME280;61348;53.392;-6.248;2023-02-19T02:06:37;101835.94;;;8.09;84.94
43707;BME280;61348;53.392;-6.248;2023-02-19T02:09:05;101848.06;;;8.08;85.07
43707;BME280;61348;53.392;-6.248;2023-02-19T02:11:51;101848.88;;;8.08;85.02
43707;BME280;61348;53.392;-6.248;2023-02-19T02:14:23;101844.19;;;8.09;85.01
43707;BME280;61348;53.392;-6.248;2023-02-19T02:17:25;101846.72;;;8.05;85.11
43707;BME280;61348;53.392;-6.248;2023-02-19T02:20:05;101838.25;;;8.02;85.15
43707;BME280;61348;53.392;-6.248;2023-02-19T02:22:54;101847.41;;;7.97;85.22
43707;BME280;61348;53.392;-6.248;2023-02-19T02:30:53;101876.56;;;7.84;85.55
43707;BME280;61348;53.392;-6.248;2023-02-19T02:33:31;101885.97;;;7.83;85.59
43707;BME280;61348;53.392;-6.248;2023-02-19T02:36:07;101888.44;;;7.85;85.54
43707;BME280;61348;53.392;-6.248;2023-02-19T02:38:40;101893.13;;;7.84;85.54
43707;BME280;61348;53.392;-6.248;2023-02-19T02:41:08;101882.09;;;7.84;85.66
43707;BME280;61348;53.392;-6.248;2023-02-19T02:43:36;101893.44;;;7.83;85.64
43707;BME280;61348;53.392;-6.248;2023-02-19T02:46:02;101886.84;;;7.79;85.68
43707;BME280;61348;53.392;-6.248;2023-02-19T02:48:50;101896.53;;;7.76;85.84
43707;BME280;61348;53.392;-6.248;2023-02-19T02:53:57;101892.53;;;7.69;85.80
43707;BME280;61348;53.392;-6.248;2023-02-19T02:56:49;101899.97;;;7.68;85.93
43707;BME280;61348;53.392;-6.248;2023-02-19T02:59:23;101895.88;;;7.66;85.90
43707;BME280;61348;53.392;-6.248;2023-02-19T03:01:56;101901.19;;;7.62;85.93
43707;BME280;61348;53.392;-6.248;2023-02-19T03:07:07;101904.53;;;7.59;86.10
43707;BME280;61348;53.392;-6.248;2023-02-19T03:09:38;101911.66;;;7.60;86.12
43707;BME280;61348;53.392;-6.248;2023-02-19T03:12:13;101917.47;;;7.59;86.18
43707;BME280;61348;53.392;-6.248;2023-02-19T03:15:04;101905.63;;;7.58;86.24
43707;BME280;61348;53.392;-6.248;2023-02-19T03:17:53;101907.88;;;7.56;86.24
43707;BME280;61348;53.392;-6.248;2023-02-19T03:20:46;101917.25;;;7.55;86.24
43707;BME280;61348;53.392;-6.248;2023-02-19T03:23:16;101915.63;;;7.54;86.20
43707;BME280;61348;53.392;-6.248;2023-02-19T03:25:44;101918.66;;;7.53;86.33
43707;BME280;61348;53.392;-6.248;2023-02-19T03:28:32;101913.75;;;7.50;86.29
43707;BME280;61348;53.392;-6.248;2023-02-19T03:31:20;101922.59;;;7.47;86.33
43707;BME280;61348;53.392;-6.248;2023-02-19T03:33:55;101920.47;;;7.44;86.62
43707;BME280;61348;53.392;-6.248;2023-02-19T03:36:23;101919.91;;;7.42;86.61
43707;BME280;61348;53.392;-6.248;2023-02-19T03:38:58;101924.06;;;7.39;86.61
43707;BME280;61348;53.392;-6.248;2023-02-19T03:41:34;101914.78;;;7.35;86.58
43707;BME280;61348;53.392;-6.248;2023-02-19T03:44:36;101905.69;;;7.34;86.61
43707;BME280;61348;53.392;-6.248;2023-02-19T03:47:15;101919.75;;;7.33;86.89
43707;BME280;61348;53.392;-6.248;2023-02-19T03:49:54;101916.47;;;7.31;86.89
43707;BME280;61348;53.392;-6.248;2023-02-19T03:55:27;101905.44;;;7.31;86.98
43707;BME280;61348;53.392;-6.248;2023-02-19T03:58:23;101900.56;;;7.28;87.16
43707;BME280;61348;53.392;-6.248;2023-02-19T04:01:09;101906.66;;;7.25;87.11
43707;BME280;61348;53.392;-6.248;2023-02-19T04:06:28;101935.59;;;7.22;87.22
43707;BME280;61348;53.392;-6.248;2023-02-19T04:08:58;101937.22;;;7.23;87.39
43707;BME280;61348;53.392;-6.248;2023-02-19T04:11:28;101938.34;;;7.22;87.61
43707;BME280;61348;53.392;-6.248;2023-02-19T04:16:43;101936.41;;;7.23;87.71
43707;BME280;61348;53.392;-6.248;2023-02-19T04:19:16;101942.44;;;7.25;87.93
43707;BME280;61348;53.392;-6.248;2023-02-19T04:21:45;101949.06;;;7.24;87.93
43707;BME280;61348;53.392;-6.248;2023-02-19T04:24:19;101948.47;;;7.27;88.16
43707;BME280;61348;53.392;-6.248;2023-02-19T04:26:47;101945.72;;;7.27;88.14
43707;BME280;61348;53.392;-6.248;2023-02-19T04:29:14;101941.31;;;7.26;88.24
43707;BME280;61348;53.392;-6.248;2023-02-19T04:31:41;101939.38;;;7.26;88.24
43707;BME280;61348;53.392;-6.248;2023-02-19T04:34:08;101943.25;;;7.25;88.36
43707;BME280;61348;53.392;-6.248;2023-02-19T04:36:34;101937.22;;;7.23;88.42
43707;BME280;61348;53.392;-6.248;2023-02-19T04:39:01;101949.88;;;7.24;88.72
43707;BME280;61348;53.392;-6.248;2023-02-19T04:41:28;101958.44;;;7.23;88.76
43707;BME280;61348;53.392;-6.248;2023-02-19T04:43:55;101958.72;;;7.21;88.83
43707;BME280;61348;53.392;-6.248;2023-02-19T04:46:22;101954.31;;;7.20;89.13
43707;BME280;61348;53.392;-6.248;2023-02-19T04:48:50;101955.69;;;7.23;89.19
43707;BME280;61348;53.392;-6.248;2023-02-19T04:51:17;101958.97;;;7.25;89.32
43707;BME280;61348;53.392;-6.248;2023-02-19T04:53:43;101962.25;;;7.27;89.39
43707;BME280;61348;53.392;-6.248;2023-02-19T04:56:12;101970.75;;;7.30;89.37
43707;BME280;61348;53.392;-6.248;2023-02-19T04:58:40;101970.16;;;7.33;89.59
43707;BME280;61348;53.392;-6.248;2023-02-19T05:01:08;101962.66;;;7.39;89.57
43707;BME280;61348;53.392;-6.248;2023-02-19T05:03:36;101970.31;;;7.42;89.58
43707;BME280;61348;53.392;-6.248;2023-02-19T05:06:04;101959.81;;;7.44;89.77
43707;BME280;61348;53.392;-6.248;2023-02-19T05:08:31;101958.41;;;7.47;89.85
43707;BME280;61348;53.392;-6.248;2023-02-19T05:11:00;101949.34;;;7.46;89.88
43707;BME280;61348;53.392;-6.248;2023-02-19T05:13:27;101951.53;;;7.49;89.95
43707;BME280;61348;53.392;-6.248;2023-02-19T05:15:59;101941.28;;;7.50;89.95
43707;BME280;61348;53.392;-6.248;2023-02-19T05:18:26;101934.38;;;7.52;90.05
43707;BME280;61348;53.392;-6.248;2023-02-19T05:20:56;101921.94;;;7.55;90.06
43707;BME280;61348;53.392;-6.248;2023-02-19T05:23:24;101932.69;;;7.56;90.23
43707;BME280;61348;53.392;-6.248;2023-02-19T05:25:52;101926.84;;;7.58;90.24
43707;BME280;61348;53.392;-6.248;2023-02-19T05:28:19;101931.78;;;7.61;90.37
43707;BME280;61348;53.392;-6.248;2023-02-19T05:30:55;101932.59;;;7.61;90.29
43707;BME280;61348;53.392;-6.248;2023-02-19T05:33:24;101935.88;;;7.63;90.47
43707;BME280;61348;53.392;-6.248;2023-02-19T05:35:54;101936.19;;;7.62;90.45
43707;BME280;61348;53.392;-6.248;2023-02-19T05:38:21;101920.47;;;7.62;90.61
43707;BME280;61348;53.392;-6.248;2023-02-19T05:40:49;101906.16;;;7.60;90.78
43707;BME280;61348;53.392;-6.248;2023-02-19T05:43:17;101898.72;;;7.61;90.82
43707;BME280;61348;53.392;-6.248;2023-02-19T05:45:44;101906.16;;;7.60;90.83
43707;BME280;61348;53.392;-6.248;2023-02-19T05:48:10;101903.41;;;7.60;90.87
43707;BME280;61348;53.392;-6.248;2023-02-19T05:50:38;101902.59;;;7.60;91.04
43707;BME280;61348;53.392;-6.248;2023-02-19T05:53:05;101911.97;;;7.59;91.08
43707;BME280;61348;53.392;-6.248;2023-02-19T05:55:35;101899.28;;;7.58;91.25
43707;BME280;61348;53.392;-6.248;2023-02-19T05:58:02;101906.75;;;7.57;91.36
43707;BME280;61348;53.392;-6.248;2023-02-19T06:00:30;101907.06;;;7.56;91.53
43707;BME280;61348;53.392;-6.248;2023-02-19T06:02:58;101908.97;;;7.55;91.62
43707;BME280;61348;53.392;-6.248;2023-02-19T06:05:24;101892.75;;;7.54;91.67
43707;BME280;61348;53.392;-6.248;2023-02-19T06:07:51;101880.91;;;7.53;91.86
43707;BME280;61348;53.392;-6.248;2023-02-19T06:10:19;101872.13;;;7.51;91.85
43707;BME280;61348;53.392;-6.248;2023-02-19T06:12:46;101863.34;;;7.49;91.99
43707;BME280;61348;53.392;-6.248;2023-02-19T06:15:13;101870.25;;;7.47;92.07
43707;BME280;61348;53.392;-6.248;2023-02-19T06:17:39;101868.63;;;7.46;92.32
43707;BME280;61348;53.392;-6.248;2023-02-19T06:20:06;101873.00;;;7.47;92.34
43707;BME280;61348;53.392;-6.248;2023-02-19T06:22:33;101860.34;;;7.46;92.42
43707;BME280;61348;53.392;-6.248;2023-02-19T06:25:00;101883.50;;;7.45;92.56
43707;BME280;61348;53.392;-6.248;2023-02-19T06:27:27;101849.63;;;7.44;92.68
43707;BME280;61348;53.392;-6.248;2023-02-19T06:29:54;101845.75;;;7.45;92.57
43707;BME280;61348;53.392;-6.248;2023-02-19T06:32:20;101850.44;;;7.45;92.72
43707;BME280;61348;53.392;-6.248;2023-02-19T06:34:47;101855.13;;;7.44;92.89
43707;BME280;61348;53.392;-6.248;2023-02-19T06:37:14;101854.34;;;7.44;92.98
43707;BME280;61348;53.392;-6.248;2023-02-19T06:39:44;101850.75;;;7.43;93.06
43707;BME280;61348;53.392;-6.248;2023-02-19T06:42:10;101846.34;;;7.42;92.87
43707;BME280;61348;53.392;-6.248;2023-02-19T06:44:37;101853.50;;;7.43;93.18
43707;BME280;61348;53.392;-6.248;2023-02-19T06:47:04;101846.34;;;7.42;93.15
43707;BME280;61348;53.392;-6.248;2023-02-19T06:49:31;101840.84;;;7.42;93.46
43707;BME280;61348;53.392;-6.248;2023-02-19T06:51:58;101851.84;;;7.42;93.44
43707;BME280;61348;53.392;-6.248;2023-02-19T06:54:26;101857.38;;;7.42;93.82
43707;BME280;61348;53.392;-6.248;2023-02-19T06:56:52;101870.03;;;7.43;93.52
43707;BME280;61348;53.392;-6.248;2023-02-19T06:59:19;101874.41;;;7.44;93.53
43707;BME280;61348;53.392;-6.248;2023-02-19T07:01:46;101871.66;;;7.44;93.72
43707;BME280;61348;53.392;-6.248;2023-02-19T07:04:13;101872.47;;;7.45;93.82
43707;BME280;61348;53.392;-6.248;2023-02-19T07:06:40;101869.72;;;7.45;93.86
43707;BME280;61348;53.392;-6.248;2023-02-19T07:09:08;101863.13;;;7.46;93.95
43707;BME280;61348;53.392;-6.248;2023-02-19T07:11:36;101871.38;;;7.46;94.13
43707;BME280;61348;53.392;-6.248;2023-02-19T07:14:06;101882.09;;;7.47;94.29
43707;BME280;61348;53.392;-6.248;2023-02-19T07:16:34;101890.06;;;7.49;94.19
43707;BME280;61348;53.392;-6.248;2023-02-19T07:19:02;101903.03;;;7.48;94.12
43707;BME280;61348;53.392;-6.248;2023-02-19T07:21:29;101901.91;;;7.49;94.00
43707;BME280;61348;53.392;-6.248;2023-02-19T07:23:56;101899.69;;;7.51;94.54
43707;BME280;61348;53.392;-6.248;2023-02-19T07:26:23;101899.69;;;7.51;94.50
43707;BME280;61348;53.392;-6.248;2023-02-19T07:28:50;101902.94;;;7.53;94.42
43707;BME280;61348;53.392;-6.248;2023-02-19T07:31:19;101910.13;;;7.54;94.64
43707;BME280;61348;53.392;-6.248;2023-02-19T07:33:46;101910.13;;;7.54;94.60
43707;BME280;61348;53.392;-6.248;2023-02-19T07:36:15;101913.38;;;7.56;94.71
43707;BME280;61348;53.392;-6.248;2023-02-19T07:38:43;101913.38;;;7.56;94.71
43707;BME280;61348;53.392;-6.248;2023-02-19T07:41:10;101923.28;;;7.57;94.77
43707;BME280;61348;53.392;-6.248;2023-02-19T07:43:38;101920.53;;;7.57;94.79
43707;BME280;61348;53.392;-6.248;2023-02-19T07:46:10;101926.03;;;7.57;94.70
43707;BME280;61348;53.392;-6.248;2023-02-19T07:48:41;101920.53;;;7.57;94.65
43707;BME280;61348;53.392;-6.248;2023-02-19T07:51:11;101935.94;;;7.58;94.71
43707;BME280;61348;53.392;-6.248;2023-02-19T07:53:39;101933.19;;;7.58;94.79
43707;BME280;61348;53.392;-6.248;2023-02-19T07:56:06;101939.22;;;7.60;94.72
43707;BME280;61348;53.392;-6.248;2023-02-19T07:58:33;101929.84;;;7.61;94.71
43707;BME280;61348;53.392;-6.248;2023-02-19T08:01:09;101923.22;;;7.62;94.81
43707;BME280;61348;53.392;-6.248;2023-02-19T08:03:37;101930.38;;;7.63;94.73
43707;BME280;61348;53.392;-6.248;2023-02-19T08:06:05;101937.81;;;7.63;94.60
43707;BME280;61348;53.392;-6.248;2023-02-19T08:08:32;101927.91;;;7.62;94.87
43707;BME280;61348;53.392;-6.248;2023-02-19T08:11:00;101937.00;;;7.62;94.77
43707;BME280;61348;53.392;-6.248;2023-02-19T08:13:50;101932.03;;;7.64;94.73
43707;BME280;61348;53.392;-6.248;2023-02-19T08:16:18;101935.28;;;7.66;94.90
43707;BME280;61348;53.392;-6.248;2023-02-19T08:18:58;101938.88;;;7.67;94.89
43707;BME280;61348;53.392;-6.248;2023-02-19T08:21:26;101933.06;;;7.68;94.74
43707;BME280;61348;53.392;-6.248;2023-02-19T08:23:53;101942.97;;;7.69;94.81
43707;BME280;61348;53.392;-6.248;2023-02-19T08:26:20;101945.41;;;7.71;94.73
43707;BME280;61348;53.392;-6.248;2023-02-19T08:28:47;101947.91;;;7.72;95.00
43707;BME280;61348;53.392;-6.248;2023-02-19T08:31:14;101945.13;;;7.72;95.04
43707;BME280;61348;53.392;-6.248;2023-02-19T08:33:41;101939.63;;;7.72;95.00
43707;BME280;61348;53.392;-6.248;2023-02-19T08:36:09;101944.81;;;7.74;95.05
43707;BME280;61348;53.392;-6.248;2023-02-19T08:38:36;101935.72;;;7.73;94.96
43707;BME280;61348;53.392;-6.248;2023-02-19T08:41:09;101932.69;;;7.75;95.01
43707;BME280;61348;53.392;-6.248;2023-02-19T08:43:37;101928.00;;;7.75;95.26
43707;BME280;61348;53.392;-6.248;2023-02-19T08:46:04;101905.97;;;7.75;94.76
43707;BME280;61348;53.392;-6.248;2023-02-19T08:48:33;101913.91;;;7.77;95.22
43707;BME280;61348;53.392;-6.248;2023-02-19T08:51:02;101927.38;;;7.78;95.21
43707;BME280;61348;53.392;-6.248;2023-02-19T08:53:30;101910.84;;;7.78;95.23
43707;BME280;61348;53.392;-6.248;2023-02-19T08:55:57;101906.97;;;7.79;95.20
43707;BME280;61348;53.392;-6.248;2023-02-19T08:58:24;101905.56;;;7.82;95.35
43707;BME280;61348;53.392;-6.248;2023-02-19T09:00:52;101903.13;;;7.80;95.35
43707;BME280;61348;53.392;-6.248;2023-02-19T09:03:19;101904.75;;;7.81;95.46
43707;BME280;61348;53.392;-6.248;2023-02-19T09:05:49;101914.66;;;7.82;95.46
43707;BME280;61348;53.392;-6.248;2023-02-19T09:08:15;101906.41;;;7.82;95.29
43707;BME280;61348;53.392;-6.248;2023-02-19T09:10:42;101917.41;;;7.82;95.42
43707;BME280;61348;53.392;-6.248;2023-02-19T09:13:09;101919.88;;;7.84;95.69
43707;BME280;61348;53.392;-6.248;2023-02-19T09:15:37;101914.91;;;7.86;95.50
43707;BME280;61348;53.392;-6.248;2023-02-19T09:18:04;101914.59;;;7.87;95.50
43707;BME280;61348;53.392;-6.248;2023-02-19T09:20:31;101923.38;;;7.89;95.58
43707;BME280;61348;53.392;-6.248;2023-02-19T09:22:58;101914.50;;;7.92;95.56
43707;BME280;61348;53.392;-6.248;2023-02-19T09:25:25;101917.50;;;7.96;95.62
43707;BME280;61348;53.392;-6.248;2023-02-19T09:27:55;101918.00;;;7.98;95.50
43707;BME280;61348;53.392;-6.248;2023-02-19T09:30:22;101915.47;;;8.02;95.57
43707;BME280;61348;53.392;-6.248;2023-02-19T09:32:49;101922.03;;;8.06;95.56
43707;BME280;61348;53.392;-6.248;2023-02-19T09:35:16;101938.22;;;8.12;95.51
43707;BME280;61348;53.392;-6.248;2023-02-19T09:37:43;101930.66;;;8.18;95.29
43707;BME280;61348;53.392;-6.248;2023-02-19T09:40:10;101928.88;;;8.27;95.30
43707;BME280;61348;53.392;-6.248;2023-02-19T09:42:40;101919.91;;;8.35;95.10
43707;BME280;61348;53.392;-6.248;2023-02-19T09:45:16;101931.38;;;8.42;95.08
43707;BME280;61348;53.392;-6.248;2023-02-19T09:47:45;101936.53;;;8.48;95.03
43707;BME280;61348;53.392;-6.248;2023-02-19T09:50:16;101952.16;;;8.53;94.87
43707;BME280;61348;53.392;-6.248;2023-02-19T09:52:57;101944.44;;;8.55;94.87
43707;BME280;61348;53.392;-6.248;2023-02-19T09:55:46;101952.72;;;8.55;94.86
43707;BME280;61348;53.392;-6.248;2023-02-19T09:58:31;101958.22;;;8.55;94.88
43707;BME280;61348;53.392;-6.248;2023-02-19T10:01:01;101950.16;;;8.58;94.87
43707;BME280;61348;53.392;-6.248;2023-02-19T10:03:32;101956.41;;;8.64;94.87
43707;BME280;61348;53.392;-6.248;2023-02-19T10:06:05;101946.59;;;8.72;94.92
43707;BME280;61348;53.392;-6.248;2023-02-19T10:08:35;101945.38;;;8.78;94.83
43707;BME280;61348;53.392;-6.248;2023-02-19T10:11:03;101951.13;;;8.81;94.64
43707;BME280;61348;53.392;-6.248;2023-02-19T10:13:38;101947.22;;;8.82;94.49
43707;BME280;61348;53.392;-6.248;2023-02-19T10:16:11;101958.28;;;8.82;94.51
43707;BME280;61348;53.392;-6.248;2023-02-19T10:18:43;101951.13;;;8.81;94.29
43707;BME280;61348;53.392;-6.248;2023-02-19T10:21:19;101950.81;;;8.83;94.37
43707;BME280;61348;53.392;-6.248;2023-02-19T10:23:54;101952.16;;;8.85;94.22
43707;BME280;61348;53.392;-6.248;2023-02-19T10:26:23;101940.50;;;8.88;94.20
43707;BME280;61348;53.392;-6.248;2023-02-19T10:28:50;101950.94;;;8.91;94.19
43707;BME280;61348;53.392;-6.248;2023-02-19T10:31:22;101955.84;;;8.94;93.97
43707;BME280;61348;53.392;-6.248;2023-02-19T10:33:53;101955.84;;;8.94;93.87
43707;BME280;61348;53.392;-6.248;2023-02-19T10:38:59;101955.25;;;8.97;93.82
43707;BME280;61348;53.392;-6.248;2023-02-19T10:41:27;101957.59;;;9.04;93.67
43707;BME280;61348;53.392;-6.248;2023-02-19T10:46:25;101962.03;;;9.18;93.47
43707;BME280;61348;53.392;-6.248;2023-02-19T10:48:58;101965.19;;;9.26;93.31
43707;BME280;61348;53.392;-6.248;2023-02-19T10:51:38;101961.22;;;9.32;93.07
43707;BME280;61348;53.392;-6.248;2023-02-19T10:54:19;101949.00;;;9.33;93.06
43707;BME280;61348;53.392;-6.248;2023-02-19T10:56:50;101945.41;;;9.32;92.72
43707;BME280;61348;53.392;-6.248;2023-02-19T11:01:57;101958.53;;;9.27;92.46
43707;BME280;61348;53.392;-6.248;2023-02-19T11:04:30;101973.78;;;9.24;92.57
43707;BME280;61348;53.392;-6.248;2023-02-19T11:07:14;101979.41;;;9.19;92.43
43707;BME280;61348;53.392;-6.248;2023-02-19T11:09:44;101965.59;;;9.19;92.32
43707;BME280;61348;53.392;-6.248;2023-02-19T11:12:13;101960.06;;;9.19;92.24
43707;BME280;61348;53.392;-6.248;2023-02-19T11:14:48;101963.03;;;9.23;92.28
43707;BME280;61348;53.392;-6.248;2023-02-19T11:17:25;101964.69;;;9.24;92.00
43707;BME280;61348;53.392;-6.248;2023-02-19T11:19:54;101959.94;;;9.24;91.87
43707;BME280;61348;53.392;-6.248;2023-02-19T11:22:37;101954.34;;;9.29;91.82
43707;BME280;61348;53.392;-6.248;2023-02-19T11:28:19;101948.06;;;9.37;91.58
43707;BME280;61348;53.392;-6.248;2023-02-19T11:30:51;101933.84;;;9.44;91.57
43707;BME280;61348;53.392;-6.248;2023-02-19T11:33:19;101938.06;;;9.55;91.36
43707;BME280;61348;53.392;-6.248;2023-02-19T11:38:58;101940.84;;;9.77;90.98
43707;BME280;61348;53.392;-6.248;2023-02-19T11:41:43;101950.19;;;9.81;90.89
43707;BME280;61348;53.392;-6.248;2023-02-19T11:44:35;101950.06;;;9.86;90.70
43707;BME280;61348;53.392;-6.248;2023-02-19T11:49:54;101946.06;;;9.92;90.43
43707;BME280;61348;53.392;-6.248;2023-02-19T11:52:41;101939.91;;;9.95;90.33
43707;BME280;61348;53.392;-6.248;2023-02-19T11:59:00;101938.16;;;9.99;89.99
43707;BME280;61348;53.392;-6.248;2023-02-19T12:09:44;101902.78;;;10.32;88.74
43707;BME280;61348;53.392;-6.248;2023-02-19T12:15:26;101891.00;;;10.49;88.23
43707;BME280;61348;53.392;-6.248;2023-02-19T12:18:05;101894.91;;;10.48;87.90
43707;BME280;61348;53.392;-6.248;2023-02-19T12:20:55;101894.09;;;10.47;87.60
43707;BME280;61348;53.392;-6.248;2023-02-19T12:26:28;101873.13;;;10.55;87.29
43707;BME280;61348;53.392;-6.248;2023-02-19T12:29:02;101876.13;;;10.67;87.14
43707;BME280;61348;53.392;-6.248;2023-02-19T12:37:28;101837.47;;;11.01;86.09
43707;BME280;61348;53.392;-6.248;2023-02-19T12:43:20;101811.72;;;11.00;84.76
43707;BME280;61348;53.392;-6.248;2023-02-19T12:48:43;101794.25;;;10.91;84.62
43707;BME280;61348;53.392;-6.248;2023-02-19T12:54:48;101784.63;;;10.89;83.70
43707;BME280;61348;53.392;-6.248;2023-02-19T12:57:36;101778.00;;;10.98;83.42
43707;BME280;61348;53.392;-6.248;2023-02-19T13:08:37;101758.41;;;10.95;82.62
43707;BME280;61348;53.392;-6.248;2023-02-19T13:11:28;101751.09;;;11.08;82.68
43707;BME280;61348;53.392;-6.248;2023-02-19T13:16:38;101747.19;;;11.34;81.93
43707;BME280;61348;53.392;-6.248;2023-02-19T13:19:08;101737.41;;;11.45;81.82
43707;BME280;61348;53.392;-6.248;2023-02-19T13:21:37;101738.88;;;11.51;81.42
43707;BME280;61348;53.392;-6.248;2023-02-19T13:24:34;101730.06;;;11.49;80.94
43707;BME280;61348;53.392;-6.248;2023-02-19T13:37:47;101739.03;;;11.29;79.64
43707;BME280;61348;53.392;-6.248;2023-02-19T13:43:21;101722.25;;;11.17;79.04
43707;BME280;61348;53.392;-6.248;2023-02-19T13:46:02;101725.69;;;11.14;79.33
43707;BME280;61348;53.392;-6.248;2023-02-19T13:48:36;101730.06;;;11.15;79.21
43707;BME280;61348;53.392;-6.248;2023-02-19T14:04:37;101746.38;;;11.25;78.50
43707;BME280;61348;53.392;-6.248;2023-02-19T14:30:48;101705.09;;;11.49;77.44
43707;BME280;61348;53.392;-6.248;2023-02-19T14:34:00;101707.69;;;11.54;77.36
43707;BME280;61348;53.392;-6.248;2023-02-19T14:41:47;101696.44;;;11.68;77.52
43707;BME280;61348;53.392;-6.248;2023-02-19T14:44:30;101683.69;;;11.84;76.85
43707;BME280;61348;53.392;-6.248;2023-02-19T14:47:12;101675.81;;;11.95;76.80
43707;BME280;61348;53.392;-6.248;2023-02-19T14:49:49;101675.25;;;12.10;76.71
43707;BME280;61348;53.392;-6.248;2023-02-19T14:52:36;101670.16;;;12.20;76.51
43707;BME280;61348;53.392;-6.248;2023-02-19T14:57:44;101653.56;;;12.41;75.92
43707;BME280;61348;53.392;-6.248;2023-02-19T15:00:23;101636.25;;;12.44;75.42
43707;BME280;61348;53.392;-6.248;2023-02-19T15:02:52;101629.44;;;12.33;74.88
43707;BME280;61348;53.392;-6.248;2023-02-19T15:05:30;101635.00;;;12.33;75.28
43707;BME280;61348;53.392;-6.248;2023-02-19T15:07:59;101621.59;;;12.35;74.96
43707;BME280;61348;53.392;-6.248;2023-02-19T15:10:30;101620.91;;;12.38;74.81
43707;BME280;61348;53.392;-6.248;2023-02-19T15:13:04;101612.44;;;12.35;74.35
43707;BME280;61348;53.392;-6.248;2023-02-19T15:15:34;101597.25;;;12.32;74.12
43707;BME280;61348;53.392;-6.248;2023-02-19T15:18:02;101607.13;;;12.21;74.03
43707;BME280;61348;53.392;-6.248;2023-02-19T15:20:33;101608.66;;;12.10;73.80
43707;BME280;61348;53.392;-6.248;2023-02-19T15:23:03;101610.03;;;11.95;73.98
43707;BME280;61348;53.392;-6.248;2023-02-19T15:25:35;101609.13;;;11.83;73.95
43707;BME280;61348;53.392;-6.248;2023-02-19T15:28:27;101624.31;;;11.77;74.01
43707;BME280;61348;53.392;-6.248;2023-02-19T15:33:26;101597.22;;;11.65;74.12
43707;BME280;61348;53.392;-6.248;2023-02-19T15:35:57;101591.84;;;11.60;74.30
43707;BME280;61348;53.392;-6.248;2023-02-19T15:38:25;101588.94;;;11.56;74.33